Time;durP1;ratioP1;P1;durP2;ratioP2;P2;SDS_P1;SDS_P2;PMS_P1;PMS_P2;Temp;Humidity;BMP_temperature;BMP_pressure;BME280_temperature;BME280_humidity;BME280_pressure;Samples;Min_cycle;Max_cycle;Signal;HPM_P1;HPM_P2
2021/11/05 00:01:39;;;;;;;15.60;10.98;;;29.30;91.10;;;;;;5145942;27;20036;-57
2021/11/05 00:04:06;;;;;;;16.25;10.18;;;29.30;91.10;;;;;;5145345;27;20015;-56
2021/11/05 00:06:32;;;;;;;12.00;9.68;;;29.30;91.10;;;;;;5144565;27;20024;-54
2021/11/05 00:08:59;;;;;;;13.52;8.95;;;29.30;91.10;;;;;;5145602;27;20015;-56
2021/11/05 00:11:27;;;;;;;11.43;8.48;;;29.30;91.20;;;;;;5145634;27;20219;-53
2021/11/05 00:13:53;;;;;;;11.38;9.20;;;29.20;91.20;;;;;;5145699;27;20025;-53
2021/11/05 00:16:20;;;;;;;9.07;7.80;;;29.20;91.20;;;;;;5145037;27;20030;-50
2021/11/05 00:26:23;;;;;;;9.52;8.20;;;29.20;91.30;;;;;;5146039;27;20020;-50
2021/11/05 00:28:56;;;;;;;14.00;8.80;;;29.20;91.40;;;;;;5145726;27;20061;-52
2021/11/05 00:31:22;;;;;;;11.02;9.18;;;29.10;91.30;;;;;;5145495;27;20251;-52
2021/11/05 00:33:49;;;;;;;14.93;9.75;;;29.10;91.20;;;;;;5145149;27;20064;-53
2021/11/05 00:36:16;;;;;;;14.57;8.70;;;29.20;91.20;;;;;;5145422;27;20027;-47
2021/11/05 00:38:46;;;;;;;17.15;8.25;;;29.10;91.20;;;;;;5144526;27;20035;-51
2021/11/05 00:41:14;;;;;;;15.05;10.63;;;29.10;91.10;;;;;;5144902;27;20019;-50
2021/11/05 00:43:43;;;;;;;19.02;16.83;;;29.10;91.10;;;;;;5144873;27;20059;-49
2021/11/05 00:46:09;;;;;;;14.95;10.13;;;29.10;91.20;;;;;;5145081;27;20068;-49
2021/11/05 00:48:36;;;;;;;11.75;8.85;;;29.10;90.90;;;;;;5144186;27;20042;-49
2021/11/05 00:51:05;;;;;;;15.13;9.55;;;29.10;90.90;;;;;;5144461;27;20043;-49
2021/11/05 00:53:32;;;;;;;15.90;8.68;;;29.10;90.90;;;;;;5145211;27;20064;-49
2021/11/05 00:55:59;;;;;;;11.18;8.20;;;29.10;90.80;;;;;;5144620;28;20029;-47
2021/11/05 00:58:28;;;;;;;10.10;7.60;;;29.00;90.60;;;;;;5143708;28;20323;-56
2021/11/05 01:00:55;;;;;;;11.15;8.25;;;29.10;90.60;;;;;;5145031;28;20335;-47
2021/11/05 01:03:21;;;;;;;10.10;8.30;;;29.00;90.50;;;;;;5144792;28;20018;-50
2021/11/05 01:05:48;;;;;;;9.35;7.97;;;29.00;90.40;;;;;;5144372;28;20011;-49
2021/11/05 01:08:14;;;;;;;13.60;8.48;;;29.00;90.40;;;;;;5144085;28;20327;-48
2021/11/05 01:10:41;;;;;;;12.32;8.60;;;29.00;90.30;;;;;;5145283;28;20038;-52
2021/11/05 01:13:08;;;;;;;11.48;8.18;;;29.00;90.30;;;;;;5144366;28;20030;-54
2021/11/05 01:15:35;;;;;;;9.15;7.10;;;29.00;90.30;;;;;;5144464;28;20035;-51
2021/11/05 01:18:02;;;;;;;11.13;7.25;;;28.90;90.20;;;;;;5144424;28;20023;-46
2021/11/05 01:20:29;;;;;;;11.05;7.45;;;29.00;90.20;;;;;;5144991;28;20019;-52
2021/11/05 01:22:56;;;;;;;10.27;7.70;;;28.90;90.10;;;;;;5144536;28;20019;-45
2021/11/05 01:25:22;;;;;;;12.20;7.50;;;28.90;90.40;;;;;;5145195;28;20027;-48
2021/11/05 01:27:50;;;;;;;10.05;7.60;;;28.90;90.20;;;;;;5144765;28;20027;-50
2021/11/05 01:30:19;;;;;;;13.75;7.43;;;28.90;90.10;;;;;;5144965;28;20072;-49
2021/11/05 01:32:47;;;;;;;11.80;7.55;;;28.90;90.10;;;;;;5144785;28;20091;-46
2021/11/05 01:35:15;;;;;;;11.13;6.90;;;28.90;90.20;;;;;;5144495;28;20027;-50
2021/11/05 01:37:42;;;;;;;13.13;7.70;;;28.90;90.20;;;;;;5144552;28;20281;-54
2021/11/05 01:40:10;;;;;;;12.82;7.60;;;28.90;90.10;;;;;;5144504;28;20287;-48
2021/11/05 01:42:42;;;;;;;11.20;7.32;;;28.80;90.10;;;;;;5144644;28;20315;-51
2021/11/05 01:45:10;;;;;;;11.65;6.95;;;28.80;90.10;;;;;;5144648;28;20205;-51
2021/11/05 01:47:38;;;;;;;12.27;7.15;;;28.80;90.10;;;;;;5144459;28;20323;-51
2021/11/05 01:50:09;;;;;;;8.98;7.47;;;28.80;90.10;;;;;;5144497;28;20027;-47
2021/11/05 01:52:41;;;;;;;9.43;6.80;;;28.80;90.10;;;;;;5144755;28;20027;-53
2021/11/05 01:55:11;;;;;;;14.23;8.25;;;28.80;90.10;;;;;;5126220;28;20060;-48
2021/11/05 02:01:00;;;;;;;10.60;7.43;;;28.70;90.10;;;;;;5146960;27;20037;-51
2021/11/05 02:03:27;;;;;;;10.27;7.10;;;28.80;90.10;;;;;;5130070;27;20011;-51
2021/11/05 02:05:54;;;;;;;13.10;7.95;;;28.70;90.00;;;;;;5148144;27;20019;-50
2021/11/05 02:08:21;;;;;;;11.77;6.68;;;28.80;90.10;;;;;;5148075;27;20015;-48
2021/11/05 02:10:49;;;;;;;13.88;7.53;;;28.70;90.00;;;;;;5148035;27;20026;-48
2021/11/05 02:13:19;;;;;;;14.65;7.25;;;28.70;90.00;;;;;;5147615;27;20311;-50
2021/11/05 02:15:47;;;;;;;11.07;6.80;;;28.70;89.90;;;;;;5147606;27;20031;-51
2021/11/05 02:18:15;;;;;;;13.15;7.10;;;28.70;89.80;;;;;;5147070;27;20011;-46
2021/11/05 02:20:47;;;;;;;10.88;6.57;;;28.70;89.80;;;;;;5147473;27;20053;-53
2021/11/05 02:23:14;;;;;;;10.85;7.40;;;28.70;89.70;;;;;;5129197;27;20018;-51
2021/11/05 02:25:44;;;;;;;11.30;6.80;;;28.70;89.50;;;;;;5147520;27;20035;-50
2021/11/05 02:28:11;;;;;;;12.10;6.85;;;28.70;89.50;;;;;;5114172;27;20027;-50
2021/11/05 02:30:40;;;;;;;9.98;7.45;;;28.70;89.40;;;;;;5129453;27;20019;-47
2021/11/05 02:33:24;;;;;;;11.57;6.95;;;28.70;89.30;;;;;;5128568;27;20027;-49
2021/11/05 02:35:51;;;;;;;10.50;6.40;;;28.70;89.20;;;;;;5146940;27;20389;-49
2021/11/05 02:38:18;;;;;;;11.20;6.97;;;28.60;88.90;;;;;;5147943;27;20019;-52
2021/11/05 02:40:48;;;;;;;13.82;7.10;;;28.60;88.80;;;;;;5130165;27;20027;-50
2021/11/05 02:43:23;;;;;;;9.95;6.55;;;28.60;88.70;;;;;;5146926;27;20011;-56
2021/11/05 02:45:51;;;;;;;11.00;6.15;;;28.60;88.60;;;;;;5128808;27;20073;-54
2021/11/05 02:48:18;;;;;;;9.75;6.68;;;28.60;88.40;;;;;;5147473;27;20406;-52
2021/11/05 02:50:45;;;;;;;14.13;6.70;;;28.60;88.40;;;;;;5146862;27;20058;-51
2021/11/05 02:53:21;;;;;;;12.02;6.18;;;28.60;88.90;;;;;;5128490;27;20050;-55
2021/11/05 02:55:57;;;;;;;11.88;6.72;;;28.60;88.20;;;;;;5147384;27;20308;-52
2021/11/05 02:58:24;;;;;;;9.10;6.22;;;28.60;88.10;;;;;;5147207;27;20027;-52
2021/11/05 03:00:51;;;;;;;8.25;6.05;;;28.60;88.00;;;;;;5147100;27;20078;-53
2021/11/05 03:03:18;;;;;;;8.60;6.50;;;28.60;88.00;;;;;;5146910;27;20057;-49
2021/11/05 03:05:47;;;;;;;9.00;6.38;;;28.60;87.90;;;;;;5146494;27;20095;-56
2021/11/05 03:08:17;;;;;;;11.05;6.25;;;28.50;87.80;;;;;;5147254;27;20098;-47
2021/11/05 03:10:44;;;;;;;11.68;6.65;;;28.50;87.80;;;;;;5147449;27;20073;-51
2021/11/05 03:13:14;;;;;;;12.13;6.68;;;28.50;87.60;;;;;;5146216;27;20199;-50
2021/11/05 03:15:43;;;;;;;9.55;6.97;;;28.50;87.50;;;;;;5146635;27;20090;-49
2021/11/05 03:18:10;;;;;;;8.10;6.22;;;28.50;87.50;;;;;;5146707;27;20086;-51
2021/11/05 03:20:40;;;;;;;10.40;6.28;;;28.50;87.30;;;;;;5146497;27;20027;-46
2021/11/05 03:23:09;;;;;;;10.20;6.43;;;28.50;87.30;;;;;;5146040;27;20203;-48
2021/11/05 03:25:36;;;;;;;11.55;6.97;;;28.50;87.30;;;;;;5146061;27;20211;-49
2021/11/05 03:28:03;;;;;;;11.50;7.20;;;28.50;87.30;;;;;;5146135;27;20022;-55
2021/11/05 03:30:31;;;;;;;8.10;7.10;;;28.50;87.20;;;;;;5146525;27;20023;-49
2021/11/05 03:32:57;;;;;;;9.57;6.32;;;28.40;87.10;;;;;;5127863;27;20015;-49
2021/11/05 03:35:37;;;;;;;7.18;5.85;;;28.40;87.10;;;;;;5145925;27;20216;-59
2021/11/05 03:38:03;;;;;;;9.48;6.25;;;28.40;87.00;;;;;;5145661;27;20030;-49
2021/11/05 03:40:33;;;;;;;10.65;6.57;;;28.40;87.10;;;;;;5146540;27;20023;-50
2021/11/05 03:43:01;;;;;;;10.88;6.50;;;28.40;87.20;;;;;;5128008;27;20038;-52
2021/11/05 03:45:27;;;;;;;11.15;6.55;;;28.30;87.20;;;;;;5145560;27;20077;-46
2021/11/05 03:47:54;;;;;;;10.93;5.93;;;28.40;87.30;;;;;;5146105;27;20038;-48
2021/11/05 03:50:21;;;;;;;11.57;6.57;;;28.30;87.30;;;;;;5145980;27;20264;-48
2021/11/05 03:52:48;;;;;;;10.20;6.22;;;28.30;87.50;;;;;;5145524;27;20253;-49
2021/11/05 03:55:15;;;;;;;12.77;6.80;;;28.30;87.50;;;;;;5146153;27;20068;-47
2021/11/05 03:57:42;;;;;;;11.88;7.13;;;28.30;87.50;;;;;;5145426;27;20095;-49
2021/11/05 04:00:13;;;;;;;13.07;7.55;;;28.30;87.40;;;;;;5145207;27;20015;-47
2021/11/05 04:02:40;;;;;;;15.23;8.20;;;28.20;87.40;;;;;;5145558;27;20064;-51
2021/11/05 04:05:07;;;;;;;9.43;6.95;;;28.20;87.40;;;;;;5145653;27;20429;-46
2021/11/05 04:07:34;;;;;;;10.75;7.68;;;28.20;87.60;;;;;;5145244;27;20395;-46
2021/11/05 04:10:01;;;;;;;14.90;7.88;;;28.20;87.60;;;;;;5145076;27;20019;-50
2021/11/05 04:12:28;;;;;;;11.50;7.80;;;28.20;87.60;;;;;;5145600;27;20019;-47
2021/11/05 04:14:55;;;;;;;9.88;7.57;;;28.20;87.50;;;;;;5145355;27;20023;-48
2021/11/05 04:17:21;;;;;;;14.55;7.53;;;28.20;87.40;;;;;;5145298;27;20019;-45
2021/11/05 04:19:48;;;;;;;10.10;7.43;;;28.20;87.40;;;;;;5145032;27;20026;-47
2021/11/05 04:22:14;;;;;;;12.90;7.18;;;28.20;87.50;;;;;;5145350;27;20125;-47
2021/11/05 04:24:41;;;;;;;12.60;6.60;;;28.10;87.30;;;;;;5144722;27;20104;-49
2021/11/05 04:27:11;;;;;;;11.95;6.80;;;28.10;87.00;;;;;;5145261;27;20258;-54
2021/11/05 04:29:38;;;;;;;10.23;6.43;;;28.10;87.80;;;;;;5145039;27;20316;-54
2021/11/05 04:32:11;;;;;;;11.00;5.95;;;28.10;87.20;;;;;;5126477;27;20336;-50
2021/11/05 04:35:04;;;;;;;9.25;5.72;;;28.10;87.20;;;;;;5145308;27;20078;-52
2021/11/05 04:37:32;;;;;;;10.43;5.85;;;28.10;87.30;;;;;;5144976;27;20027;-50
2021/11/05 04:43:00;;;;;;;13.95;6.90;;;28.10;87.40;;;;;;5143505;27;20019;-51
2021/11/05 04:45:33;;;;;;;14.65;6.30;;;28.00;87.40;;;;;;5144755;27;20102;-51
2021/11/05 04:48:00;;;;;;;10.20;6.75;;;28.00;87.60;;;;;;5145185;27;20106;-57
2021/11/05 04:50:50;;;;;;;8.60;5.60;;;28.00;87.70;;;;;;5145400;27;20026;-54
2021/11/05 04:53:18;;;;;;;10.00;6.20;;;28.00;87.80;;;;;;5117105;28;20035;-52
2021/11/05 04:55:44;;;;;;;9.40;6.47;;;28.00;88.00;;;;;;5145884;27;20076;-46
2021/11/05 04:58:11;;;;;;;9.63;5.90;;;28.00;88.00;;;;;;5144844;28;20034;-49
2021/11/05 05:00:38;;;;;;;9.27;5.85;;;28.00;88.00;;;;;;5144865;28;20031;-51
2021/11/05 05:03:05;;;;;;;10.20;6.32;;;28.00;88.10;;;;;;5144469;28;20022;-50
2021/11/05 05:05:32;;;;;;;6.80;5.80;;;27.90;88.10;;;;;;5144954;28;20060;-53
2021/11/05 05:07:59;;;;;;;7.82;6.78;;;27.90;88.20;;;;;;5144670;28;20027;-52
2021/11/05 05:10:27;;;;;;;11.63;6.40;;;27.90;88.20;;;;;;5145206;28;20022;-48
2021/11/05 05:12:54;;;;;;;9.07;6.15;;;27.90;88.20;;;;;;5144695;28;20020;-47
2021/11/05 05:15:21;;;;;;;9.48;6.35;;;27.90;88.10;;;;;;5145062;28;20035;-45
2021/11/05 05:17:48;;;;;;;10.43;6.40;;;27.90;88.00;;;;;;5144665;28;20128;-51
2021/11/05 05:20:17;;;;;;;10.20;6.38;;;27.90;88.10;;;;;;5145008;28;20042;-52
2021/11/05 05:22:45;;;;;;;8.40;5.63;;;27.90;88.10;;;;;;5144440;28;20179;-52
2021/11/05 05:25:13;;;;;;;8.82;6.10;;;27.90;88.10;;;;;;5144648;28;20016;-55
2021/11/05 05:27:41;;;;;;;10.02;6.10;;;27.90;88.10;;;;;;5144267;28;20027;-53
2021/11/05 05:30:11;;;;;;;8.70;6.03;;;27.90;87.80;;;;;;5144507;28;20023;-55
2021/11/05 05:32:39;;;;;;;9.98;5.78;;;27.90;87.40;;;;;;5144733;28;20015;-52
2021/11/05 05:35:06;;;;;;;9.00;5.65;;;27.80;87.20;;;;;;5145748;27;20019;-51
2021/11/05 05:37:33;;;;;;;7.85;5.70;;;27.80;86.90;;;;;;5148603;27;20330;-49
2021/11/05 05:40:05;;;;;;;12.18;6.22;;;27.80;86.50;;;;;;5148968;27;20091;-55
2021/11/05 05:42:31;;;;;;;10.13;5.43;;;27.80;86.40;;;;;;5147918;27;20323;-52
2021/11/05 05:45:01;;;;;;;9.85;5.95;;;27.80;86.30;;;;;;5149035;27;20284;-49
2021/11/05 05:47:28;;;;;;;13.52;5.70;;;27.80;86.40;;;;;;5148428;27;20018;-51
2021/11/05 05:49:54;;;;;;;12.60;5.50;;;27.80;86.40;;;;;;5149229;27;20026;-49
2021/11/05 05:52:22;;;;;;;11.10;5.38;;;27.80;86.20;;;;;;5148462;27;20029;-53
2021/11/05 05:54:49;;;;;;;9.35;5.70;;;27.80;86.20;;;;;;5148626;27;20027;-51
2021/11/05 05:57:16;;;;;;;7.97;5.53;;;27.80;86.20;;;;;;5130202;27;20362;-50
2021/11/05 05:59:42;;;;;;;7.03;4.95;;;27.80;86.10;;;;;;5147836;27;20031;-51
2021/11/05 06:02:09;;;;;;;12.35;5.03;;;27.80;86.10;;;;;;5148361;27;20016;-55
2021/11/05 06:04:39;;;;;;;9.52;5.03;;;27.70;86.10;;;;;;5148774;27;20027;-51
2021/11/05 06:07:06;;;;;;;10.90;5.18;;;27.70;86.20;;;;;;5148574;27;20025;-54
2021/11/05 06:09:33;;;;;;;9.65;5.43;;;27.70;86.20;;;;;;5148221;27;20031;-52
2021/11/05 06:12:00;;;;;;;12.98;5.75;;;27.70;86.20;;;;;;5147871;27;20019;-49
2021/11/05 06:14:27;;;;;;;11.38;5.40;;;27.70;86.20;;;;;;5147795;27;20296;-46
2021/11/05 06:16:54;;;;;;;11.23;5.25;;;27.70;86.20;;;;;;5147477;27;20019;-47
2021/11/05 06:19:21;;;;;;;7.40;5.32;;;27.70;86.20;;;;;;5147173;27;20099;-47
2021/11/05 06:21:48;;;;;;;10.20;5.18;;;27.70;86.10;;;;;;5147493;27;20038;-51
2021/11/05 06:24:15;;;;;;;8.23;5.18;;;27.70;86.10;;;;;;5147660;27;20023;-47
2021/11/05 06:26:41;;;;;;;11.07;5.05;;;27.70;86.30;;;;;;5147599;27;20078;-53
2021/11/05 06:29:08;;;;;;;9.23;4.95;;;27.70;86.20;;;;;;5147729;27;20047;-53
2021/11/05 06:31:35;;;;;;;9.05;4.90;;;27.60;86.20;;;;;;5147364;27;20040;-51
2021/11/05 06:34:03;;;;;;;9.70;5.35;;;27.60;86.10;;;;;;5147106;27;20034;-50
2021/11/05 06:36:30;;;;;;;11.98;4.88;;;27.60;86.20;;;;;;5146786;27;20017;-52
2021/11/05 06:38:56;;;;;;;10.63;5.30;;;27.60;86.20;;;;;;5147554;27;20050;-50
2021/11/05 06:41:25;;;;;;;8.30;5.10;;;27.60;86.30;;;;;;5147412;27;20022;-50
2021/11/05 06:43:53;;;;;;;13.75;5.05;;;27.60;86.10;;;;;;5147095;27;20090;-50
2021/11/05 06:46:20;;;;;;;14.65;5.03;;;27.60;86.00;;;;;;5145932;27;20086;-48
2021/11/05 06:48:47;;;;;;;12.57;5.07;;;27.60;86.00;;;;;;5146973;27;20027;-54
2021/11/05 06:51:14;;;;;;;8.95;4.95;;;27.60;85.80;;;;;;5146698;27;20026;-49
2021/11/05 06:53:41;;;;;;;9.77;4.95;;;27.50;85.50;;;;;;5146615;27;20039;-46
2021/11/05 06:56:08;;;;;;;7.38;5.00;;;27.60;85.20;;;;;;5147090;27;20019;-48
2021/11/05 06:58:36;;;;;;;8.43;4.55;;;27.50;84.90;;;;;;5146343;27;20308;-46
2021/11/05 07:01:07;;;;;;;12.15;4.57;;;27.50;84.80;;;;;;5146670;27;20015;-47
2021/11/05 07:03:34;;;;;;;7.50;4.47;;;27.50;84.50;;;;;;5146325;27;20022;-46
2021/11/05 07:06:01;;;;;;;8.63;4.55;;;27.50;84.40;;;;;;5146762;27;20022;-44
2021/11/05 07:08:28;;;;;;;10.23;4.18;;;27.50;84.40;;;;;;5146154;27;20080;-46
2021/11/05 07:10:55;;;;;;;7.60;4.03;;;27.50;84.10;;;;;;5146778;27;20364;-47
2021/11/05 07:13:22;;;;;;;6.82;3.97;;;27.50;84.10;;;;;;5146082;27;20030;-50
2021/11/05 07:15:49;;;;;;;9.85;4.72;;;27.50;84.10;;;;;;5146566;27;20019;-50
2021/11/05 07:18:16;;;;;;;6.55;4.35;;;27.50;84.00;;;;;;5146532;27;20046;-49
2021/11/05 07:20:44;;;;;;;7.55;4.15;;;27.50;84.20;;;;;;5146507;27;20027;-50
2021/11/05 07:23:12;;;;;;;9.27;4.20;;;27.50;84.20;;;;;;5145889;27;20049;-49
2021/11/05 07:25:40;;;;;;;9.70;4.25;;;27.40;84.20;;;;;;5147008;27;20117;-51
2021/11/05 07:28:07;;;;;;;6.90;4.35;;;27.40;84.30;;;;;;5146257;27;20027;-48
2021/11/05 07:30:34;;;;;;;6.70;3.88;;;27.40;84.40;;;;;;5146154;27;20027;-58
2021/11/05 07:33:01;;;;;;;6.45;4.20;;;27.40;84.60;;;;;;5146363;27;20027;-57
2021/11/05 07:35:28;;;;;;;8.10;4.13;;;27.40;84.80;;;;;;5146450;27;20030;-57
2021/11/05 07:37:55;;;;;;;6.75;4.05;;;27.40;84.80;;;;;;5145650;27;20023;-55
2021/11/05 07:40:22;;;;;;;5.90;3.70;;;27.40;84.90;;;;;;5146573;27;20054;-48
2021/11/05 07:42:50;;;;;;;9.25;4.18;;;27.40;85.10;;;;;;5145844;27;20016;-47
2021/11/05 07:45:17;;;;;;;9.02;4.32;;;27.40;85.30;;;;;;5145339;27;20057;-46
2021/11/05 07:47:47;;;;;;;6.38;4.28;;;27.30;85.20;;;;;;5146256;27;20047;-44
2021/11/05 07:50:16;;;;;;;7.00;3.88;;;27.40;85.30;;;;;;5145730;27;20015;-46
2021/11/05 07:52:42;;;;;;;6.32;3.83;;;27.30;85.20;;;;;;5145952;27;20015;-46
2021/11/05 07:55:09;;;;;;;5.93;4.05;;;27.30;85.30;;;;;;5145700;27;20023;-46
2021/11/05 07:57:37;;;;;;;6.43;4.00;;;27.30;85.30;;;;;;5145574;27;20015;-47
2021/11/05 08:00:06;;;;;;;7.57;4.20;;;27.30;85.10;;;;;;5146143;27;20026;-46
2021/11/05 08:02:33;;;;;;;7.40;4.50;;;27.30;85.30;;;;;;5146334;27;20015;-46
2021/11/05 08:05:00;;;;;;;7.32;4.22;;;27.30;85.00;;;;;;5145662;27;20033;-45
2021/11/05 08:07:26;;;;;;;6.78;4.43;;;27.30;84.70;;;;;;5145487;27;20233;-44
2021/11/05 08:09:53;;;;;;;8.68;3.80;;;27.30;84.70;;;;;;5146093;27;20044;-47
2021/11/05 08:12:20;;;;;;;5.82;3.80;;;27.30;84.70;;;;;;5145542;27;20008;-50
2021/11/05 08:14:47;;;;;;;6.55;4.18;;;27.30;84.80;;;;;;5145686;27;20023;-47
2021/11/05 08:17:13;;;;;;;6.95;3.72;;;27.30;84.60;;;;;;5127169;27;20010;-48
2021/11/05 08:19:40;;;;;;;4.80;3.42;;;27.30;84.80;;;;;;5126817;27;20278;-46
2021/11/05 08:22:07;;;;;;;8.57;3.97;;;27.30;84.80;;;;;;5145610;27;20255;-52
2021/11/05 08:24:34;;;;;;;4.57;3.53;;;27.30;84.60;;;;;;5145670;27;20061;-48
2021/11/05 08:27:01;;;;;;;5.13;3.78;;;27.30;84.50;;;;;;5145118;27;20011;-56
2021/11/05 08:29:27;;;;;;;8.00;3.97;;;27.30;84.30;;;;;;5145614;27;20060;-55
2021/11/05 08:31:54;;;;;;;9.15;4.05;;;27.30;84.30;;;;;;5144528;27;20026;-54
2021/11/05 08:34:21;;;;;;;6.93;3.95;;;27.30;84.20;;;;;;5144782;27;20094;-44
2021/11/05 08:36:48;;;;;;;8.75;3.92;;;27.30;84.10;;;;;;5145263;27;20070;-43
2021/11/05 08:39:14;;;;;;;6.93;3.60;;;27.20;84.10;;;;;;5145218;27;20027;-52
2021/11/05 08:41:41;;;;;;;6.60;4.10;;;27.20;84.10;;;;;;5144735;27;20052;-48
2021/11/05 08:44:09;;;;;;;9.38;3.97;;;27.20;84.20;;;;;;5144760;27;20039;-48
2021/11/05 08:46:35;;;;;;;6.70;3.65;;;27.20;84.30;;;;;;5145428;27;20082;-48
2021/11/05 08:49:07;;;;;;;10.45;4.30;;;27.20;84.40;;;;;;5144828;27;20311;-47
2021/11/05 08:51:34;;;;;;;5.88;3.80;;;27.20;84.80;;;;;;5144950;27;20023;-47
2021/11/05 08:54:01;;;;;;;5.93;3.88;;;27.20;84.40;;;;;;5144422;27;20027;-46
2021/11/05 08:56:28;;;;;;;8.88;4.05;;;27.20;84.20;;;;;;5144760;27;20015;-51
2021/11/05 08:58:55;;;;;;;5.70;3.78;;;27.20;84.20;;;;;;5144750;27;20065;-56
2021/11/05 09:01:21;;;;;;;7.60;3.67;;;27.20;84.00;;;;;;5144167;28;20016;-54
2021/11/05 09:03:48;;;;;;;7.50;3.80;;;27.20;84.00;;;;;;5145076;28;20031;-54
2021/11/05 09:06:15;;;;;;;8.73;4.00;;;27.20;83.90;;;;;;5144748;28;20011;-46
2021/11/05 09:08:44;;;;;;;6.82;4.00;;;27.20;84.00;;;;;;5144233;28;20027;-49
2021/11/05 09:11:11;;;;;;;7.07;3.35;;;27.20;84.00;;;;;;5147842;27;20223;-48
2021/11/05 09:13:38;;;;;;;7.75;3.80;;;27.20;84.10;;;;;;5148946;27;20019;-48
2021/11/05 09:16:05;;;;;;;6.15;3.85;;;27.20;84.40;;;;;;5149135;27;20023;-47
2021/11/05 09:18:33;;;;;;;6.07;4.03;;;27.20;84.40;;;;;;5148873;27;20043;-46
2021/11/05 09:21:00;;;;;;;10.35;3.85;;;27.20;84.60;;;;;;5148875;27;20011;-47
2021/11/05 09:23:28;;;;;;;6.80;4.03;;;27.20;84.60;;;;;;5148877;27;20015;-43
2021/11/05 09:25:55;;;;;;;7.22;4.03;;;27.20;84.80;;;;;;5149070;27;20082;-48
2021/11/05 09:28:21;;;;;;;10.93;4.20;;;27.20;85.10;;;;;;5148905;27;20125;-49
2021/11/05 09:30:48;;;;;;;9.32;4.18;;;27.20;85.30;;;;;;5149579;27;20196;-45
2021/11/05 09:33:19;;;;;;;9.35;4.28;;;27.10;85.40;;;;;;5148494;27;20023;-49
2021/11/05 09:35:46;;;;;;;6.47;4.25;;;27.10;85.40;;;;;;5148153;27;20027;-47
2021/11/05 09:38:14;;;;;;;6.78;3.80;;;27.20;85.70;;;;;;5148196;27;20051;-44
2021/11/05 09:40:41;;;;;;;6.03;4.18;;;27.10;85.90;;;;;;5148758;27;20031;-47
2021/11/05 09:43:08;;;;;;;10.85;4.18;;;27.10;85.80;;;;;;5148447;27;20010;-50
2021/11/05 09:45:34;;;;;;;10.18;4.18;;;27.10;85.70;;;;;;5148183;27;20051;-54
2021/11/05 09:48:02;;;;;;;8.70;4.53;;;27.10;85.80;;;;;;5148530;27;20023;-55
2021/11/05 09:50:30;;;;;;;6.40;4.22;;;27.10;85.90;;;;;;5148922;27;20027;-55
2021/11/05 09:52:57;;;;;;;5.30;4.25;;;27.10;85.80;;;;;;5147824;27;20106;-47
2021/11/05 09:55:23;;;;;;;9.07;4.50;;;27.10;85.80;;;;;;5148385;27;20189;-50
2021/11/05 09:57:51;;;;;;;9.30;4.45;;;27.10;85.70;;;;;;5147484;27;20030;-51
2021/11/05 10:00:21;;;;;;;8.15;4.10;;;27.10;85.80;;;;;;5148006;27;20258;-59
2021/11/05 10:02:48;;;;;;;6.60;4.15;;;27.10;86.10;;;;;;5147966;27;20042;-53
2021/11/05 10:05:16;;;;;;;8.63;4.65;;;27.10;86.30;;;;;;5148468;27;20023;-55
2021/11/05 10:07:56;;;;;;;6.20;4.22;;;27.10;86.50;;;;;;5148006;27;20023;-47
2021/11/05 10:10:37;;;;;;;4.72;4.25;;;27.10;86.50;;;;;;5148507;27;20034;-50
2021/11/05 10:13:07;;;;;;;5.63;4.35;;;27.10;86.20;;;;;;5147950;27;20015;-50
2021/11/05 10:15:47;;;;;;;7.55;4.38;;;27.10;86.20;;;;;;5148273;27;20086;-50
2021/11/05 10:18:18;;;;;;;8.07;4.47;;;27.10;86.40;;;;;;5147115;27;20049;-49
2021/11/05 10:20:46;;;;;;;7.28;4.55;;;27.10;86.40;;;;;;5147368;27;20056;-51
2021/11/05 10:23:16;;;;;;;8.88;5.00;;;27.10;86.70;;;;;;5146990;27;20312;-46
2021/11/05 10:25:51;;;;;;;9.80;5.07;;;27.10;86.90;;;;;;5147722;27;20027;-49
2021/11/05 10:28:25;;;;;;;67.05;9.40;;;27.10;87.10;;;;;;5147378;27;20023;-47
2021/11/05 10:31:03;;;;;;;20.63;5.60;;;27.10;87.40;;;;;;5147082;27;20367;-49
2021/11/05 10:33:40;;;;;;;12.98;4.72;;;27.00;87.50;;;;;;5147149;27;20303;-52
2021/11/05 10:36:10;;;;;;;13.18;5.03;;;27.10;87.80;;;;;;5147344;27;20011;-51
2021/11/05 10:38:43;;;;;;;7.80;4.55;;;27.10;88.00;;;;;;5146926;27;20030;-51
2021/11/05 10:41:12;;;;;;;13.10;4.95;;;27.00;88.20;;;;;;5147499;27;20064;-50
2021/11/05 10:43:46;;;;;;;8.80;5.15;;;27.00;88.30;;;;;;5146567;27;20032;-51
2021/11/05 10:46:33;;;;;;;12.48;4.85;;;27.00;88.50;;;;;;5147380;27;20378;-52
2021/11/05 10:49:03;;;;;;;14.75;4.95;;;27.00;88.60;;;;;;5147308;27;20027;-52
2021/11/05 10:51:31;;;;;;;10.15;4.68;;;27.00;88.70;;;;;;5147184;27;20086;-49
2021/11/05 10:53:59;;;;;;;11.35;4.40;;;27.00;88.90;;;;;;5147245;27;20031;-50
2021/11/05 10:56:29;;;;;;;10.70;4.38;;;27.00;88.90;;;;;;5147193;27;20027;-52
2021/11/05 10:59:03;;;;;;;9.23;4.55;;;27.00;89.00;;;;;;5146910;27;20068;-48
2021/11/05 11:01:34;;;;;;;9.38;4.70;;;27.00;89.00;;;;;;5147051;27;20027;-53
2021/11/05 11:04:04;;;;;;;13.50;5.07;;;27.00;89.00;;;;;;5147149;27;20079;-50
2021/11/05 11:06:33;;;;;;;12.82;4.68;;;27.00;89.00;;;;;;5146932;27;20113;-53
2021/11/05 11:09:08;;;;;;;11.20;4.97;;;27.00;89.10;;;;;;5147010;27;20086;-53
2021/11/05 11:11:41;;;;;;;9.70;5.20;;;27.00;88.80;;;;;;5146880;27;20019;-52
2021/11/05 11:14:18;;;;;;;12.13;5.78;;;27.00;88.70;;;;;;5146808;27;20296;-51
2021/11/05 11:16:47;;;;;;;10.52;5.85;;;27.00;88.60;;;;;;5146848;27;20031;-51
2021/11/05 11:19:17;;;;;;;12.32;5.70;;;27.10;88.70;;;;;;5146555;27;20027;-51
2021/11/05 11:21:46;;;;;;;14.65;5.90;;;27.10;88.60;;;;;;5146418;27;20246;-48
2021/11/05 11:24:16;;;;;;;8.27;4.93;;;27.10;88.40;;;;;;5146717;27;20043;-49
2021/11/05 11:26:45;;;;;;;10.27;5.55;;;27.10;88.40;;;;;;5146298;27;20023;-47
2021/11/05 11:29:14;;;;;;;12.93;5.15;;;27.20;88.30;;;;;;5146554;27;20023;-52
2021/11/05 11:31:43;;;;;;;8.57;4.95;;;27.20;88.30;;;;;;5146485;27;20030;-49
2021/11/05 11:34:11;;;;;;;16.95;4.65;;;27.20;88.40;;;;;;5145418;27;20059;-50
2021/11/05 11:36:40;;;;;;;10.82;5.38;;;27.20;88.60;;;;;;5146319;27;20027;-51
2021/11/05 11:39:18;;;;;;;13.73;5.22;;;27.20;88.30;;;;;;5146198;27;20023;-49
2021/11/05 11:41:46;;;;;;;12.25;5.35;;;27.20;88.20;;;;;;5146039;27;20019;-49
2021/11/05 11:44:20;;;;;;;12.48;5.95;;;27.30;88.20;;;;;;5145991;27;20039;-48
2021/11/05 11:47:02;;;;;;;15.43;6.75;;;27.30;88.00;;;;;;5146207;27;20011;-49
2021/11/05 11:49:38;;;;;;;16.35;8.02;;;27.30;88.00;;;;;;5146338;27;20052;-47
2021/11/05 11:52:32;;;;;;;15.57;8.32;;;27.30;87.90;;;;;;5145936;27;20197;-48
2021/11/05 11:55:13;;;;;;;14.02;7.60;;;27.40;87.80;;;;;;5146219;27;20208;-50
2021/11/05 11:57:40;;;;;;;15.38;7.85;;;27.40;87.80;;;;;;5145850;27;20324;-50
2021/11/05 12:00:17;;;;;;;15.27;7.20;;;27.40;87.70;;;;;;5146146;27;20037;-49
2021/11/05 12:02:46;;;;;;;16.38;6.65;;;27.40;87.80;;;;;;5145715;27;20015;-48
2021/11/05 20:08:51;;;;;;;13.63;11.88;;;29.40;84.30;;;;;;5994310;22;5589388;-54
2021/11/05 20:11:18;;;;;;;17.35;11.90;;;30.00;83.40;;;;;;6234980;23;20024;-54
2021/11/05 20:13:45;;;;;;;13.32;11.98;;;30.00;83.00;;;;;;6235046;23;20031;-56
2021/11/05 20:16:12;;;;;;;13.07;11.77;;;30.10;82.60;;;;;;6234659;23;19997;-53
2021/11/05 20:18:39;;;;;;;13.25;11.85;;;30.10;82.60;;;;;;6234647;23;20004;-54
2021/11/05 20:21:06;;;;;;;13.07;11.18;;;30.10;82.60;;;;;;6234390;23;19993;-54
2021/11/05 20:23:33;;;;;;;13.65;12.25;;;30.10;82.30;;;;;;6234567;23;19992;-51
2021/11/05 20:49:28;;;;;;;13.15;11.65;;;30.00;83.30;;;;;;5141970;27;20423;-56
2021/11/05 20:51:55;;;;;;;16.55;12.13;;;30.30;82.60;;;;;;5142065;27;20254;-52
2021/11/05 20:54:21;;;;;;;18.08;11.98;;;30.30;82.70;;;;;;5142381;27;20018;-58
2021/11/05 20:56:48;;;;;;;15.23;12.20;;;30.30;82.80;;;;;;5142505;27;20064;-58
2021/11/05 20:59:15;;;;;;;15.45;11.18;;;30.30;82.90;;;;;;5143325;27;20091;-58
2021/11/05 21:01:42;;;;;;;13.10;11.48;;;30.30;83.00;;;;;;5142668;27;20199;-58
2021/11/05 21:04:09;;;;;;;13.85;12.30;;;30.40;83.10;;;;;;5142360;27;20023;-56
2021/11/05 21:06:35;;;;;;;14.90;11.35;;;30.30;83.20;;;;;;5142053;27;20068;-50
2021/11/05 21:09:03;;;;;;;14.57;11.80;;;30.30;83.30;;;;;;5141974;27;20041;-50
2021/11/05 21:11:29;;;;;;;14.32;11.68;;;30.30;83.30;;;;;;5141711;27;20121;-49
2021/11/05 21:13:56;;;;;;;14.65;11.57;;;30.30;83.40;;;;;;5142250;27;20030;-54
2021/11/05 21:16:24;;;;;;;15.68;12.50;;;30.30;83.50;;;;;;5141634;27;20019;-55
2021/11/05 21:18:50;;;;;;;14.02;12.30;;;30.30;83.70;;;;;;5142324;27;20019;-54
2021/11/05 21:21:17;;;;;;;15.13;12.15;;;30.30;83.80;;;;;;5142008;27;20184;-52
2021/11/05 21:23:46;;;;;;;14.80;12.25;;;30.30;83.80;;;;;;5141778;27;20020;-48
2021/11/05 21:26:15;;;;;;;19.73;12.85;;;30.30;84.00;;;;;;5141627;27;20026;-52
2021/11/05 21:28:42;;;;;;;16.13;12.82;;;30.30;84.20;;;;;;5141683;27;20023;-54